Time;durP1;ratioP1;P1;durP2;ratioP2;P2;SDS_P1;SDS_P2;PMS_P1;PMS_P2;Temp;Humidity;BMP_temperature;BMP_pressure;BME280_temperature;BME280_humidity;BME280_pressure;Samples;Min_cycle;Max_cycle;Signal;HPM_P1;HPM_P2
2023/04/05 00:01:36;;;;;;;4.93;3.00;;;;;;;;;;5053855;28;20256;-80
2023/04/05 00:04:02;;;;;;;4.47;3.27;;;;;;;;;;5048952;28;20218;-80
2023/04/05 00:06:29;;;;;;;5.03;3.37;;;;;;;;;;5033732;28;20558;-80
2023/04/05 00:08:59;;;;;;;6.93;4.00;;;;;;;;;;5049987;28;20768;-79
2023/04/05 00:11:26;;;;;;;5.73;3.00;;;;;;;;;;5034938;28;20209;-81
2023/04/05 00:13:53;;;;;;;4.23;3.03;;;;;;;;;;5032410;28;20194;-80
2023/04/05 00:16:19;;;;;;;5.40;2.93;;;;;;;;;;5047589;28;20186;-80
2023/04/05 00:18:50;;;;;;;5.47;3.30;;;;;;;;;;5049045;28;20189;-80
2023/04/05 00:21:22;;;;;;;4.47;2.90;;;;;;;;;;5037933;28;20290;-80
2023/04/05 00:23:50;;;;;;;5.00;3.00;;;;;;;;;;5048497;28;20178;-80
2023/04/05 00:26:16;;;;;;;3.87;2.90;;;;;;;;;;5047957;28;20186;-80
2023/04/05 00:28:47;;;;;;;4.33;3.17;;;;;;;;;;4999495;28;20186;-80
2023/04/05 00:31:13;;;;;;;9.70;5.03;;;;;;;;;;5049527;28;20210;-81
2023/04/05 00:33:39;;;;;;;19.53;7.97;;;;;;;;;;5032622;28;20278;-82
2023/04/05 00:36:10;;;;;;;13.77;5.90;;;;;;;;;;5032359;28;20190;-82
2023/04/05 00:38:36;;;;;;;16.73;6.93;;;;;;;;;;5032523;28;20204;-80
2023/04/05 00:41:02;;;;;;;10.50;5.03;;;;;;;;;;5032398;28;20312;-81
2023/04/05 00:43:29;;;;;;;8.13;4.03;;;;;;;;;;5039164;28;20214;-80
2023/04/05 00:45:56;;;;;;;6.17;3.60;;;;;;;;;;5046889;28;20649;-83
2023/04/05 00:48:23;;;;;;;11.33;5.10;;;;;;;;;;5047257;28;20257;-80
2023/04/05 00:50:50;;;;;;;9.70;3.97;;;;;;;;;;5050040;28;20174;-80
2023/04/05 00:53:17;;;;;;;6.57;3.97;;;;;;;;;;5046784;28;20653;-80
2023/04/05 00:55:45;;;;;;;5.93;3.60;;;;;;;;;;5049702;28;20186;-80
2023/04/05 00:58:11;;;;;;;6.30;3.50;;;;;;;;;;5049131;28;20185;-79
2023/04/05 01:00:38;;;;;;;7.37;4.30;;;;;;;;;;5048756;28;20198;-80
2023/04/05 01:03:07;;;;;;;6.17;3.63;;;;;;;;;;5031218;28;20182;-79
2023/04/05 01:05:39;;;;;;;6.10;3.53;;;;;;;;;;5048615;28;20216;-79
2023/04/05 01:08:08;;;;;;;5.20;3.30;;;;;;;;;;5040210;28;20190;-80
2023/04/05 01:10:36;;;;;;;5.10;3.23;;;;;;;;;;5042240;28;20191;-79
2023/04/05 01:13:03;;;;;;;3.47;3.10;;;;;;;;;;5046035;28;20208;-79
2023/04/05 01:15:29;;;;;;;4.27;2.93;;;;;;;;;;5047525;28;20178;-80
2023/04/05 01:17:56;;;;;;;4.30;3.07;;;;;;;;;;5049796;28;20244;-80
2023/04/05 01:20:25;;;;;;;3.40;2.93;;;;;;;;;;5047620;28;20202;-80
2023/04/05 01:23:10;;;;;;;4.87;3.20;;;;;;;;;;5030274;28;20610;-79
2023/04/05 01:25:58;;;;;;;4.77;3.40;;;;;;;;;;5048630;28;20323;-80
2023/04/05 01:28:27;;;;;;;4.40;3.00;;;;;;;;;;5049305;28;20256;-80
2023/04/05 01:31:12;;;;;;;4.00;3.10;;;;;;;;;;5049686;28;20170;-79
2023/04/05 01:33:51;;;;;;;5.37;3.50;;;;;;;;;;5043423;28;20251;-79
2023/04/05 01:36:44;;;;;;;4.90;3.43;;;;;;;;;;5049148;28;20188;-79
2023/04/05 01:39:12;;;;;;;4.10;3.40;;;;;;;;;;5029063;28;20196;-80
2023/04/05 01:41:40;;;;;;;4.23;3.23;;;;;;;;;;5019898;28;20221;-79
2023/04/05 01:44:06;;;;;;;4.60;3.20;;;;;;;;;;5047338;28;20308;-80
2023/04/05 01:46:32;;;;;;;4.90;3.00;;;;;;;;;;5049298;28;20540;-80
2023/04/05 01:48:58;;;;;;;3.53;2.73;;;;;;;;;;5030513;28;20174;-80
2023/04/05 01:51:25;;;;;;;4.07;3.43;;;;;;;;;;5047291;28;20213;-80
2023/04/05 01:53:51;;;;;;;4.77;3.40;;;;;;;;;;5046727;28;20208;-80
2023/04/05 01:56:17;;;;;;;5.03;3.20;;;;;;;;;;5037852;28;20194;-81
2023/04/05 01:58:43;;;;;;;6.00;3.77;;;;;;;;;;5046915;28;20189;-81
2023/04/05 02:01:10;;;;;;;4.70;3.50;;;;;;;;;;5043334;28;20210;-82
2023/04/05 02:03:36;;;;;;;4.57;3.10;;;;;;;;;;5047509;28;20186;-80
2023/04/05 02:06:02;;;;;;;4.90;3.40;;;;;;;;;;5049562;28;20271;-81
2023/04/05 02:08:28;;;;;;;5.27;3.43;;;;;;;;;;5047189;28;20254;-80
2023/04/05 02:10:54;;;;;;;5.33;3.67;;;;;;;;;;5045377;28;20185;-80
2023/04/05 02:13:25;;;;;;;4.23;3.60;;;;;;;;;;5042795;28;20635;-80
2023/04/05 02:15:51;;;;;;;4.80;3.50;;;;;;;;;;5036247;28;20181;-80
2023/04/05 02:18:21;;;;;;;8.20;4.07;;;;;;;;;;5044528;28;20348;-80
2023/04/05 02:20:51;;;;;;;4.70;3.87;;;;;;;;;;5042479;28;20360;-80
2023/04/05 02:23:17;;;;;;;5.60;3.60;;;;;;;;;;5047437;28;20185;-80
2023/04/05 02:25:44;;;;;;;6.43;3.70;;;;;;;;;;5045736;28;20221;-81
2023/04/05 02:28:10;;;;;;;6.07;4.30;;;;;;;;;;5047658;28;20213;-80
2023/04/05 02:30:36;;;;;;;4.13;3.37;;;;;;;;;;5045832;28;20200;-81
2023/04/05 02:33:03;;;;;;;6.40;4.80;;;;;;;;;;5033648;28;20217;-82
2023/04/05 02:35:29;;;;;;;7.07;3.90;;;;;;;;;;5066880;28;20388;-81
2023/04/05 02:37:56;;;;;;;4.60;3.77;;;;;;;;;;5037210;28;20596;-80
2023/04/05 02:40:22;;;;;;;5.70;3.73;;;;;;;;;;5046040;28;20214;-80
2023/04/05 02:42:48;;;;;;;4.93;3.60;;;;;;;;;;5045619;28;20814;-80
2023/04/05 02:45:14;;;;;;;5.93;4.10;;;;;;;;;;5048300;28;20319;-80
2023/04/05 02:47:40;;;;;;;6.43;4.30;;;;;;;;;;5031577;28;20284;-80
2023/04/05 02:50:07;;;;;;;5.33;3.73;;;;;;;;;;5014995;28;20276;-80
2023/04/05 02:52:39;;;;;;;5.90;4.10;;;;;;;;;;5046507;28;20443;-80
2023/04/05 02:55:05;;;;;;;5.33;4.07;;;;;;;;;;5014960;28;20178;-80
2023/04/05 02:57:32;;;;;;;6.70;4.30;;;;;;;;;;4998339;28;20209;-80
2023/04/05 03:00:07;;;;;;;6.63;4.10;;;;;;;;;;5048187;28;20217;-80
2023/04/05 03:02:33;;;;;;;6.30;4.70;;;;;;;;;;5051207;28;20262;-79
2023/04/05 03:05:02;;;;;;;4.50;3.97;;;;;;;;;;5031961;28;20187;-80
2023/04/05 03:07:31;;;;;;;6.40;4.87;;;;;;;;;;5046965;28;20194;-80
2023/04/05 03:09:58;;;;;;;5.90;4.63;;;;;;;;;;5050506;28;20194;-81
2023/04/05 03:12:26;;;;;;;5.27;3.80;;;;;;;;;;5049555;28;20275;-79
2023/04/05 03:14:53;;;;;;;6.00;4.17;;;;;;;;;;5035687;28;20197;-79
2023/04/05 03:17:22;;;;;;;5.00;3.70;;;;;;;;;;5067832;28;20653;-80
2023/04/05 03:19:59;;;;;;;5.43;4.47;;;;;;;;;;5034419;28;20312;-80
2023/04/05 03:22:32;;;;;;;5.43;4.63;;;;;;;;;;5043501;28;20217;-80
2023/04/05 03:25:00;;;;;;;7.70;5.30;;;;;;;;;;5034367;28;20181;-80
2023/04/05 03:27:28;;;;;;;6.50;4.90;;;;;;;;;;5050686;28;20220;-83
2023/04/05 03:30:15;;;;;;;7.17;4.60;;;;;;;;;;5023678;28;20201;-80
2023/04/05 03:32:49;;;;;;;7.30;4.40;;;;;;;;;;5047851;28;20208;-80
2023/04/05 03:35:34;;;;;;;6.37;4.50;;;;;;;;;;5051807;28;20229;-81
2023/04/05 03:38:01;;;;;;;6.63;4.50;;;;;;;;;;5049665;28;20190;-80
2023/04/05 03:40:28;;;;;;;5.43;3.97;;;;;;;;;;5020592;28;20296;-81
2023/04/05 03:42:54;;;;;;;4.53;3.80;;;;;;;;;;5032370;28;20795;-79
2023/04/05 03:45:20;;;;;;;7.27;4.40;;;;;;;;;;5058771;28;20233;-80
2023/04/05 03:47:47;;;;;;;5.45;4.10;;;;;;;;;;5051143;28;20894;-79
2023/04/05 03:50:13;;;;;;;4.20;3.80;;;;;;;;;;5050660;28;20607;-80
2023/04/05 03:52:40;;;;;;;5.90;4.50;;;;;;;;;;5048361;28;20289;-79
2023/04/05 03:55:07;;;;;;;5.93;4.60;;;;;;;;;;5029137;28;20194;-80
2023/04/05 03:57:34;;;;;;;5.60;4.30;;;;;;;;;;5020104;28;20274;-79
2023/04/05 04:00:16;;;;;;;5.20;4.10;;;;;;;;;;5021012;28;20240;-80
2023/04/05 04:02:46;;;;;;;6.70;4.13;;;;;;;;;;5047939;28;20206;-80
2023/04/05 04:05:18;;;;;;;5.30;3.90;;;;;;;;;;5047759;28;20499;-79
2023/04/05 04:07:47;;;;;;;5.30;4.03;;;;;;;;;;5062295;28;20185;-80
2023/04/05 04:10:16;;;;;;;5.67;3.80;;;;;;;;;;5046714;28;20190;-79
2023/04/05 04:12:44;;;;;;;4.50;3.57;;;;;;;;;;5005092;28;20228;-79
2023/04/05 04:15:11;;;;;;;5.07;3.90;;;;;;;;;;5014848;28;20193;-80
2023/04/05 04:17:58;;;;;;;5.83;3.97;;;;;;;;;;5034609;28;20170;-80
2023/04/05 04:20:33;;;;;;;6.97;4.50;;;;;;;;;;5045604;28;20204;-79
2023/04/05 04:23:17;;;;;;;5.60;3.70;;;;;;;;;;5026513;28;20243;-80
2023/04/05 04:26:01;;;;;;;5.23;4.00;;;;;;;;;;5048048;28;20182;-81
2023/04/05 04:28:37;;;;;;;5.27;3.40;;;;;;;;;;5048255;28;20526;-80
2023/04/05 04:31:22;;;;;;;6.33;3.90;;;;;;;;;;5049566;28;20210;-80
2023/04/05 04:34:12;;;;;;;5.77;3.97;;;;;;;;;;5046768;28;20295;-80
2023/04/05 04:36:59;;;;;;;8.07;4.20;;;;;;;;;;5033645;28;20672;-80
2023/04/05 04:39:47;;;;;;;4.70;3.70;;;;;;;;;;5026509;28;20284;-80
2023/04/05 04:42:37;;;;;;;4.50;3.92;;;;;;;;;;5044017;28;20431;-81
2023/04/05 04:45:15;;;;;;;7.03;4.43;;;;;;;;;;5049516;28;20166;-81
2023/04/05 04:47:48;;;;;;;7.27;4.23;;;;;;;;;;5035473;28;20260;-80
2023/04/05 04:50:18;;;;;;;4.83;4.00;;;;;;;;;;5049568;28;20194;-81
2023/04/05 04:52:45;;;;;;;5.40;3.50;;;;;;;;;;5049454;28;20602;-80
2023/04/05 04:55:13;;;;;;;6.10;4.20;;;;;;;;;;5049009;28;20189;-80
2023/04/05 04:57:42;;;;;;;5.33;4.40;;;;;;;;;;5046851;28;20202;-80
2023/04/05 05:00:14;;;;;;;5.50;4.50;;;;;;;;;;5032340;28;20690;-80
2023/04/05 05:02:41;;;;;;;8.03;4.53;;;;;;;;;;5042965;28;20213;-81
2023/04/05 05:05:08;;;;;;;7.47;4.93;;;;;;;;;;5052580;28;20530;-80
2023/04/05 05:07:42;;;;;;;5.73;4.60;;;;;;;;;;5034344;28;20197;-80
2023/04/05 05:10:15;;;;;;;5.67;4.60;;;;;;;;;;5049998;28;20707;-80
2023/04/05 05:12:41;;;;;;;6.33;4.47;;;;;;;;;;5038548;28;20221;-82
2023/04/05 05:15:10;;;;;;;6.33;4.40;;;;;;;;;;5033654;28;20658;-80
2023/04/05 05:17:36;;;;;;;5.57;4.23;;;;;;;;;;5056900;28;20186;-80
2023/04/05 05:20:08;;;;;;;5.97;4.70;;;;;;;;;;5036739;28;20206;-80
2023/04/05 05:22:35;;;;;;;7.43;5.70;;;;;;;;;;5050545;28;20205;-81
2023/04/05 05:25:02;;;;;;;7.93;5.80;;;;;;;;;;5049496;28;20272;-80
2023/04/05 05:27:28;;;;;;;7.33;5.03;;;;;;;;;;5050637;28;20178;-81
2023/04/05 05:29:54;;;;;;;8.53;5.00;;;;;;;;;;5047983;28;20185;-80
2023/04/05 05:32:21;;;;;;;6.57;4.53;;;;;;;;;;5045853;28;20254;-81
2023/04/05 05:34:48;;;;;;;9.47;5.33;;;;;;;;;;5032930;28;20177;-80
2023/04/05 05:37:15;;;;;;;6.60;5.17;;;;;;;;;;5047752;28;20185;-81
2023/04/05 05:39:45;;;;;;;8.27;5.17;;;;;;;;;;5032872;28;20193;-81
2023/04/05 05:42:11;;;;;;;8.03;4.70;;;;;;;;;;5048822;28;20218;-80
2023/04/05 05:44:37;;;;;;;8.17;5.17;;;;;;;;;;5051486;28;20185;-80
2023/04/05 05:47:03;;;;;;;9.07;5.50;;;;;;;;;;5050167;28;20649;-80
2023/04/05 05:49:30;;;;;;;9.17;5.57;;;;;;;;;;5050982;28;20823;-81
2023/04/05 05:51:56;;;;;;;10.77;5.70;;;;;;;;;;5047664;28;20308;-83
2023/04/05 05:54:22;;;;;;;8.87;5.10;;;;;;;;;;5049932;28;20526;-80
2023/04/05 05:56:49;;;;;;;7.93;5.30;;;;;;;;;;5032714;28;20193;-80
2023/04/05 05:59:15;;;;;;;9.37;5.10;;;;;;;;;;5047534;28;20189;-81
2023/04/05 06:01:45;;;;;;;8.20;5.93;;;;;;;;;;5047380;28;20609;-81
2023/04/05 06:04:11;;;;;;;8.13;5.97;;;;;;;;;;5047509;28;20189;-80
2023/04/05 06:06:37;;;;;;;8.67;6.10;;;;;;;;;;5048538;28;20270;-80
2023/04/05 06:09:04;;;;;;;8.13;5.47;;;;;;;;;;5048757;28;20493;-81
2023/04/05 06:11:30;;;;;;;8.90;5.40;;;;;;;;;;5046614;28;20210;-80
2023/04/05 06:13:56;;;;;;;8.67;5.17;;;;;;;;;;5045563;28;20190;-80
2023/04/05 06:16:22;;;;;;;5.83;4.37;;;;;;;;;;5047141;28;20276;-80
2023/04/05 06:18:48;;;;;;;6.20;5.00;;;;;;;;;;5041647;28;20186;-80
2023/04/05 06:21:15;;;;;;;7.80;5.13;;;;;;;;;;5047009;28;20213;-81
2023/04/05 06:23:41;;;;;;;6.07;4.73;;;;;;;;;;5030710;28;20289;-81
2023/04/05 06:26:08;;;;;;;6.37;4.93;;;;;;;;;;5047060;28;20178;-80
2023/04/05 06:28:34;;;;;;;7.00;5.07;;;;;;;;;;5052664;28;20177;-80
2023/04/05 06:31:00;;;;;;;6.10;4.60;;;;;;;;;;5050326;28;20173;-80
2023/04/05 06:33:31;;;;;;;14.80;5.57;;;;;;;;;;5048777;28;20189;-80
2023/04/05 06:35:57;;;;;;;6.33;5.00;;;;;;;;;;5053284;28;20243;-82
2023/04/05 06:38:24;;;;;;;8.87;5.80;;;;;;;;;;5052534;28;20170;-81
2023/04/05 06:40:50;;;;;;;7.47;5.17;;;;;;;;;;5053787;28;20229;-80
2023/04/05 06:43:16;;;;;;;6.70;5.10;;;;;;;;;;5052785;28;20261;-81
2023/04/05 06:45:42;;;;;;;7.10;5.30;;;;;;;;;;5043927;28;20653;-80
2023/04/05 06:48:08;;;;;;;6.30;4.90;;;;;;;;;;5053075;28;20261;-81
2023/04/05 06:50:34;;;;;;;7.97;4.93;;;;;;;;;;5044704;28;20178;-80
2023/04/05 06:53:06;;;;;;;6.57;4.90;;;;;;;;;;5052144;28;20217;-81
2023/04/05 06:55:32;;;;;;;7.80;5.20;;;;;;;;;;5036119;28;20182;-83
2023/04/05 06:57:59;;;;;;;7.73;5.07;;;;;;;;;;5053939;28;20182;-84
2023/04/05 07:00:25;;;;;;;8.97;5.33;;;;;;;;;;5054029;28;20291;-82
2023/04/05 07:02:53;;;;;;;7.53;5.17;;;;;;;;;;5050103;28;20206;-78
2023/04/05 07:05:20;;;;;;;7.63;5.17;;;;;;;;;;5056671;28;20391;-79
2023/04/05 07:07:47;;;;;;;7.00;4.60;;;;;;;;;;5055846;28;20190;-79
2023/04/05 07:10:14;;;;;;;6.93;4.73;;;;;;;;;;5055244;28;20189;-80
2023/04/05 07:12:40;;;;;;;5.53;4.33;;;;;;;;;;5035064;28;20236;-81
2023/04/05 07:15:07;;;;;;;7.17;4.67;;;;;;;;;;5032391;28;20261;-80
2023/04/05 07:17:33;;;;;;;9.93;5.50;;;;;;;;;;5060793;28;20605;-81
2023/04/05 07:19:59;;;;;;;7.17;4.87;;;;;;;;;;5059360;28;20213;-81
2023/04/05 07:22:25;;;;;;;7.07;4.77;;;;;;;;;;5034614;28;20551;-81
2023/04/05 07:24:52;;;;;;;7.70;5.23;;;;;;;;;;5059116;28;20190;-79
2023/04/05 07:27:18;;;;;;;5.80;4.57;;;;;;;;;;5049508;28;20189;-78
2023/04/05 07:29:46;;;;;;;7.13;4.63;;;;;;;;;;5034260;28;20182;-79
2023/04/05 07:32:12;;;;;;;6.50;4.27;;;;;;;;;;5053864;28;20697;-80
2023/04/05 07:34:38;;;;;;;6.83;5.23;;;;;;;;;;5052953;28;20210;-80
2023/04/05 07:37:05;;;;;;;6.67;4.83;;;;;;;;;;5035644;28;20201;-80
2023/04/05 07:39:31;;;;;;;8.30;4.80;;;;;;;;;;5051202;28;20724;-79
2023/04/05 07:41:57;;;;;;;7.53;4.90;;;;;;;;;;5050386;28;20201;-80
2023/04/05 07:44:23;;;;;;;9.93;5.70;;;;;;;;;;5036363;28;20181;-79
2023/04/05 07:46:49;;;;;;;7.80;5.23;;;;;;;;;;5042581;28;20214;-80
2023/04/05 07:49:16;;;;;;;6.20;5.10;;;;;;;;;;5050135;28;20368;-80
2023/04/05 07:51:42;;;;;;;6.07;4.67;;;;;;;;;;5035730;28;20268;-79
2023/04/05 07:54:09;;;;;;;6.53;4.50;;;;;;;;;;5051260;28;20185;-79
2023/04/05 07:56:37;;;;;;;10.47;4.83;;;;;;;;;;5046319;28;20869;-79
2023/04/05 07:59:03;;;;;;;6.20;4.77;;;;;;;;;;5051307;28;20181;-79
2023/04/05 08:01:30;;;;;;;6.37;4.27;;;;;;;;;;5050099;28;20205;-79
2023/04/05 08:03:56;;;;;;;4.93;3.27;;;;;;;;;;5034754;28;20193;-82
2023/04/05 08:06:26;;;;;;;7.90;3.87;;;;;;;;;;5014800;28;20182;-79
2023/04/05 08:08:52;;;;;;;5.43;3.80;;;;;;;;;;5033692;28;20222;-82
2023/04/05 08:11:20;;;;;;;6.03;4.10;;;;;;;;;;5044239;28;20273;-80
2023/04/05 08:13:46;;;;;;;6.97;4.50;;;;;;;;;;5050504;28;20189;-80
2023/04/05 08:16:12;;;;;;;7.67;4.63;;;;;;;;;;5033938;28;20253;-80
2023/04/05 08:18:38;;;;;;;5.80;4.23;;;;;;;;;;5046822;28;20198;-80
2023/04/05 08:21:05;;;;;;;6.33;4.23;;;;;;;;;;5033917;28;20206;-80
2023/04/05 08:23:31;;;;;;;6.17;3.83;;;;;;;;;;5033978;28;20174;-82
2023/04/05 08:25:57;;;;;;;4.67;3.87;;;;;;;;;;5040788;28;20182;-81
2023/04/05 08:28:23;;;;;;;5.97;3.83;;;;;;;;;;5052093;28;20554;-81
2023/04/05 08:30:54;;;;;;;6.07;4.10;;;;;;;;;;5052057;28;20186;-81
2023/04/05 08:33:20;;;;;;;4.50;3.50;;;;;;;;;;5050828;28;20817;-80
2023/04/05 08:35:46;;;;;;;5.77;3.83;;;;;;;;;;5053298;28;20189;-80
2023/04/05 08:38:13;;;;;;;6.63;4.10;;;;;;;;;;5051708;28;20178;-81
2023/04/05 08:40:45;;;;;;;5.13;3.57;;;;;;;;;;5036757;28;20236;-81
2023/04/05 08:43:18;;;;;;;6.03;3.80;;;;;;;;;;5021364;28;20243;-80
2023/04/05 08:45:49;;;;;;;5.67;3.83;;;;;;;;;;5038260;28;20190;-81
2023/04/05 08:48:16;;;;;;;5.63;4.20;;;;;;;;;;5041854;28;20277;-80
2023/04/05 08:50:49;;;;;;;5.77;4.40;;;;;;;;;;5036859;28;20194;-81
2023/04/05 08:53:15;;;;;;;7.47;4.10;;;;;;;;;;5047593;28;20247;-80
2023/04/05 08:55:42;;;;;;;5.40;4.10;;;;;;;;;;5044749;28;20653;-80
2023/04/05 08:58:12;;;;;;;5.53;4.47;;;;;;;;;;5037368;28;20913;-82
2023/04/05 09:00:39;;;;;;;6.10;4.00;;;;;;;;;;5013728;28;20213;-80
2023/04/05 09:03:05;;;;;;;4.77;3.90;;;;;;;;;;5074788;28;20250;-81
2023/04/05 09:05:32;;;;;;;5.43;4.00;;;;;;;;;;5040371;28;20236;-81
2023/04/05 09:07:59;;;;;;;6.37;4.80;;;;;;;;;;5049779;28;20204;-81
2023/04/05 09:10:26;;;;;;;8.67;4.67;;;;;;;;;;5048268;28;20192;-82
2023/04/05 09:12:53;;;;;;;5.37;3.87;;;;;;;;;;5043840;28;20216;-82
2023/04/05 09:15:23;;;;;;;6.73;4.13;;;;;;;;;;5049579;28;20220;-81
2023/04/05 09:17:50;;;;;;;6.03;4.27;;;;;;;;;;5033245;28;20193;-82
2023/04/05 09:20:16;;;;;;;7.83;4.30;;;;;;;;;;5048472;28;20194;-81
2023/04/05 09:22:46;;;;;;;5.70;4.47;;;;;;;;;;5031533;28;20208;-81
2023/04/05 09:25:32;;;;;;;6.67;4.40;;;;;;;;;;5030798;28;20675;-81
2023/04/05 09:27:59;;;;;;;5.50;3.70;;;;;;;;;;5034102;28;20268;-81
2023/04/05 09:30:26;;;;;;;5.10;3.83;;;;;;;;;;5032519;28;20192;-83
2023/04/05 09:32:53;;;;;;;5.17;4.30;;;;;;;;;;5044353;28;20597;-81
2023/04/05 09:35:30;;;;;;;7.20;4.07;;;;;;;;;;5037302;28;20343;-82
2023/04/05 09:38:00;;;;;;;6.03;3.87;;;;;;;;;;5007684;28;20209;-83
2023/04/05 09:40:48;;;;;;;7.50;4.50;;;;;;;;;;5048513;28;20225;-82
2023/04/05 09:43:36;;;;;;;7.20;4.70;;;;;;;;;;5045978;28;20209;-81
2023/04/05 09:46:02;;;;;;;6.43;4.83;;;;;;;;;;5049049;28;20645;-82
2023/04/05 09:48:47;;;;;;;5.37;4.23;;;;;;;;;;5048760;28;20228;-82
2023/04/05 09:51:14;;;;;;;7.27;4.70;;;;;;;;;;5043532;28;20204;-81
2023/04/05 09:54:01;;;;;;;6.70;4.77;;;;;;;;;;5045875;28;20267;-81
2023/04/05 09:56:28;;;;;;;7.07;4.83;;;;;;;;;;5030714;28;20182;-82
2023/04/05 09:59:03;;;;;;;6.40;4.20;;;;;;;;;;5049609;28;20185;-80
2023/04/05 10:01:32;;;;;;;5.50;4.17;;;;;;;;;;5050656;28;20680;-81
2023/04/05 10:03:59;;;;;;;6.70;4.73;;;;;;;;;;5028872;28;20233;-82
2023/04/05 10:06:41;;;;;;;6.33;4.93;;;;;;;;;;5031351;28;20179;-82
2023/04/05 10:09:09;;;;;;;6.53;4.33;;;;;;;;;;5030001;28;20182;-81
2023/04/05 10:11:36;;;;;;;6.83;4.40;;;;;;;;;;5008054;28;20219;-81
2023/04/05 10:14:06;;;;;;;4.47;3.93;;;;;;;;;;5026514;28;20178;-81
2023/04/05 10:16:34;;;;;;;6.57;4.67;;;;;;;;;;5048516;28;20550;-81
2023/04/05 10:19:02;;;;;;;7.23;4.50;;;;;;;;;;5032148;28;20197;-79
2023/04/05 10:21:32;;;;;;;6.20;4.30;;;;;;;;;;5048885;28;20258;-80
2023/04/05 10:24:09;;;;;;;5.07;4.57;;;;;;;;;;5031391;28;20178;-79
2023/04/05 10:26:40;;;;;;;7.47;4.53;;;;;;;;;;5048725;28;20189;-78
2023/04/05 10:29:12;;;;;;;5.40;4.47;;;;;;;;;;5049723;28;20696;-81
2023/04/05 10:31:45;;;;;;;5.53;4.70;;;;;;;;;;5049806;28;20991;-81
2023/04/05 10:34:18;;;;;;;5.13;4.30;;;;;;;;;;5029525;28;20268;-81
2023/04/05 10:36:56;;;;;;;6.17;5.10;;;;;;;;;;5033920;28;21447;-82
2023/04/05 10:39:26;;;;;;;5.77;4.20;;;;;;;;;;5035954;28;20204;-85
2023/04/05 10:41:53;;;;;;;6.40;4.60;;;;;;;;;;5031226;28;20237;-85
2023/04/05 10:44:19;;;;;;;7.13;4.90;;;;;;;;;;5050312;28;20747;-84
2023/04/05 10:46:46;;;;;;;5.67;4.77;;;;;;;;;;5037117;28;20181;-83
2023/04/05 10:49:30;;;;;;;6.63;4.10;;;;;;;;;;5034383;28;20186;-79
2023/04/05 10:51:58;;;;;;;5.80;4.50;;;;;;;;;;5017882;28;20229;-78
2023/04/05 10:54:28;;;;;;;6.50;4.33;;;;;;;;;;5031480;28;20182;-78
2023/04/05 10:56:55;;;;;;;6.13;4.70;;;;;;;;;;5051924;28;20555;-78
2023/04/05 10:59:21;;;;;;;7.23;5.43;;;;;;;;;;5050413;28;20186;-79
2023/04/05 11:01:48;;;;;;;6.87;4.37;;;;;;;;;;5049809;28;20286;-79
2023/04/05 11:04:15;;;;;;;6.23;5.20;;;;;;;;;;5047917;28;20190;-79
2023/04/05 11:06:41;;;;;;;7.03;4.50;;;;;;;;;;5047566;28;20209;-80
2023/04/05 11:09:11;;;;;;;6.00;4.50;;;;;;;;;;5047359;28;20178;-79
2023/04/05 11:11:55;;;;;;;5.03;4.40;;;;;;;;;;5047828;28;20221;-80
2023/04/05 11:14:24;;;;;;;5.10;4.60;;;;;;;;;;5048530;28;20202;-80
2023/04/05 11:16:55;;;;;;;7.17;4.50;;;;;;;;;;5047438;28;20641;-80
2023/04/05 11:19:40;;;;;;;6.80;4.10;;;;;;;;;;5047213;28;20185;-79
2023/04/05 11:22:06;;;;;;;6.17;4.40;;;;;;;;;;5043921;28;20225;-79
2023/04/05 11:24:53;;;;;;;5.70;4.70;;;;;;;;;;5052909;28;20208;-79
2023/04/05 11:27:30;;;;;;;6.60;4.93;;;;;;;;;;5052286;28;20208;-80
2023/04/05 11:29:57;;;;;;;5.43;4.43;;;;;;;;;;5050558;28;20209;-79
2023/04/05 11:32:24;;;;;;;6.27;4.40;;;;;;;;;;5049626;28;20201;-79
2023/04/05 11:35:00;;;;;;;7.40;4.80;;;;;;;;;;5052334;28;20241;-76
2023/04/05 11:37:45;;;;;;;5.27;4.17;;;;;;;;;;5045953;28;20556;-77
2023/04/05 11:40:25;;;;;;;5.63;4.40;;;;;;;;;;5041445;28;20178;-76
2023/04/05 11:42:57;;;;;;;4.67;4.13;;;;;;;;;;5049799;28;20284;-76
2023/04/05 11:45:24;;;;;;;5.17;4.50;;;;;;;;;;5050659;28;20186;-77
2023/04/05 11:47:50;;;;;;;5.97;4.57;;;;;;;;;;5050334;28;20801;-78
2023/04/05 11:50:16;;;;;;;5.07;4.57;;;;;;;;;;5033552;28;20190;-78
2023/04/05 11:52:42;;;;;;;5.80;4.87;;;;;;;;;;5050201;28;20226;-76
2023/04/05 11:55:10;;;;;;;5.07;4.20;;;;;;;;;;5050644;28;20182;-77
2023/04/05 11:57:36;;;;;;;4.93;4.40;;;;;;;;;;5051572;28;20259;-77
2023/04/05 12:00:08;;;;;;;6.10;4.30;;;;;;;;;;5049298;28;20243;-77
2023/04/05 12:02:43;;;;;;;5.83;4.60;;;;;;;;;;5050717;28;20255;-74
2023/04/05 12:05:09;;;;;;;15.30;13.13;;;;;;;;;;5051284;28;20166;-75
2023/04/05 12:07:35;;;;;;;8.03;6.47;;;;;;;;;;5051589;28;20170;-75
2023/04/05 12:10:12;;;;;;;8.10;5.80;;;;;;;;;;5050871;28;20224;-74
2023/04/05 12:12:39;;;;;;;5.60;3.97;;;;;;;;;;5048153;28;20755;-75
2023/04/05 12:15:07;;;;;;;6.20;4.13;;;;;;;;;;5050395;28;20185;-76
2023/04/05 12:17:53;;;;;;;6.63;4.80;;;;;;;;;;5048828;28;20627;-75
2023/04/05 12:20:22;;;;;;;6.23;4.40;;;;;;;;;;5049463;28;20304;-75
2023/04/05 12:22:49;;;;;;;5.07;4.23;;;;;;;;;;5047708;28;20201;-75
2023/04/05 12:25:16;;;;;;;6.23;4.20;;;;;;;;;;5049790;28;20788;-75
2023/04/05 12:27:42;;;;;;;6.20;4.23;;;;;;;;;;5048489;28;20182;-76
2023/04/05 12:30:15;;;;;;;5.40;4.90;;;;;;;;;;5049224;28;20684;-77
2023/04/05 12:32:49;;;;;;;4.37;3.90;;;;;;;;;;5045231;28;20213;-75
2023/04/05 12:35:17;;;;;;;5.20;4.27;;;;;;;;;;5049128;28;20188;-75
2023/04/05 12:37:43;;;;;;;5.13;4.60;;;;;;;;;;5048110;28;20265;-75
2023/04/05 12:40:10;;;;;;;4.63;4.07;;;;;;;;;;5059941;28;20212;-75
2023/04/05 12:42:37;;;;;;;4.03;3.63;;;;;;;;;;5047145;28;20300;-75
2023/04/05 12:45:05;;;;;;;4.37;3.70;;;;;;;;;;5048929;28;20220;-75
2023/04/05 12:47:35;;;;;;;4.90;4.40;;;;;;;;;;5047612;28;20229;-74
2023/04/05 12:50:14;;;;;;;6.23;4.30;;;;;;;;;;5049922;28;20178;-75
2023/04/05 12:52:51;;;;;;;5.73;3.93;;;;;;;;;;5047406;28;20217;-75
2023/04/05 12:55:18;;;;;;;5.40;4.10;;;;;;;;;;5049376;28;20185;-74
2023/04/05 12:57:44;;;;;;;4.43;4.03;;;;;;;;;;5045198;28;20199;-75
2023/04/05 13:00:11;;;;;;;4.70;4.30;;;;;;;;;;5048003;28;20221;-75
2023/04/05 13:02:37;;;;;;;4.73;4.17;;;;;;;;;;5049314;28;20263;-76
2023/04/05 13:05:03;;;;;;;4.67;4.27;;;;;;;;;;5040388;28;20180;-76
2023/04/05 13:07:30;;;;;;;5.03;4.10;;;;;;;;;;5045704;28;20231;-75
2023/04/05 13:09:56;;;;;;;4.87;3.77;;;;;;;;;;5047745;28;20563;-75
2023/04/05 13:12:25;;;;;;;5.30;4.33;;;;;;;;;;5048727;28;20201;-76
2023/04/05 13:14:51;;;;;;;5.67;4.60;;;;;;;;;;5048572;28;20238;-75
2023/04/05 13:17:17;;;;;;;4.60;4.10;;;;;;;;;;5043982;28;20593;-75
2023/04/05 13:19:43;;;;;;;4.70;3.73;;;;;;;;;;5048886;28;20190;-75
2023/04/05 13:22:09;;;;;;;6.93;3.90;;;;;;;;;;5047475;28;20222;-76
2023/04/05 13:24:35;;;;;;;4.40;4.00;;;;;;;;;;5045372;28;20270;-75
2023/04/05 13:27:01;;;;;;;6.80;4.40;;;;;;;;;;5049079;28;20662;-75
2023/04/05 13:29:28;;;;;;;4.73;3.60;;;;;;;;;;5049004;28;20237;-75
2023/04/05 13:31:54;;;;;;;5.23;4.20;;;;;;;;;;5048281;28;20207;-75
2023/04/05 13:34:20;;;;;;;4.53;4.13;;;;;;;;;;5048257;28;20199;-75
2023/04/05 13:36:47;;;;;;;5.03;4.53;;;;;;;;;;5047865;28;20178;-76
2023/04/05 13:39:14;;;;;;;5.30;4.80;;;;;;;;;;5047009;28;20216;-75
2023/04/05 13:41:40;;;;;;;4.30;3.90;;;;;;;;;;5048204;28;20208;-75
2023/04/05 13:44:06;;;;;;;6.10;3.80;;;;;;;;;;5046895;28;20173;-75
2023/04/05 13:46:32;;;;;;;4.70;4.10;;;;;;;;;;5046598;28;20191;-75
2023/04/05 13:48:58;;;;;;;6.23;4.73;;;;;;;;;;5046008;28;20658;-75
2023/04/05 13:51:25;;;;;;;4.80;4.27;;;;;;;;;;5045349;28;20276;-75
2023/04/05 13:53:51;;;;;;;4.23;3.83;;;;;;;;;;5047367;28;20203;-76
2023/04/05 13:56:17;;;;;;;4.50;4.10;;;;;;;;;;5047906;28;20716;-75
2023/04/05 13:58:43;;;;;;;5.37;4.00;;;;;;;;;;5046970;28;20217;-75
2023/04/05 14:01:10;;;;;;;5.67;3.80;;;;;;;;;;5046743;28;20775;-75
2023/04/05 14:03:36;;;;;;;4.20;3.80;;;;;;;;;;5043600;28;20200;-76
2023/04/05 14:06:02;;;;;;;4.30;3.90;;;;;;;;;;5048230;28;20535;-75
2023/04/05 14:08:32;;;;;;;3.60;3.30;;;;;;;;;;5046283;28;20232;-75
2023/04/05 14:10:59;;;;;;;5.10;4.60;;;;;;;;;;5045466;28;20200;-75
2023/04/05 14:13:25;;;;;;;4.90;3.97;;;;;;;;;;5046273;28;20182;-75
2023/04/05 14:15:51;;;;;;;5.20;3.93;;;;;;;;;;5045302;28;20270;-75
2023/04/05 14:18:17;;;;;;;4.30;3.90;;;;;;;;;;5046375;28;20189;-75
2023/04/05 14:20:43;;;;;;;5.23;3.93;;;;;;;;;;5046225;28;20302;-76
2023/04/05 14:23:10;;;;;;;4.13;3.80;;;;;;;;;;5046928;28;20197;-75
2023/04/05 14:25:36;;;;;;;4.23;3.60;;;;;;;;;;5047572;28;20181;-75
2023/04/05 14:28:02;;;;;;;5.83;4.00;;;;;;;;;;5048568;28;20657;-76
2023/04/05 14:30:28;;;;;;;3.90;3.60;;;;;;;;;;5047144;28;20197;-76
2023/04/05 14:32:54;;;;;;;5.73;3.70;;;;;;;;;;5047102;28;20598;-75
2023/04/05 14:35:20;;;;;;;5.37;3.63;;;;;;;;;;5046608;28;20264;-76
2023/04/05 14:37:47;;;;;;;4.60;3.57;;;;;;;;;;5046060;28;20273;-75
2023/04/05 14:40:13;;;;;;;4.27;3.87;;;;;;;;;;5046894;28;20194;-75
2023/04/05 14:42:39;;;;;;;4.30;3.90;;;;;;;;;;5046534;28;20206;-76
2023/04/05 14:45:06;;;;;;;4.73;3.97;;;;;;;;;;5046030;28;20246;-76
2023/04/05 14:47:32;;;;;;;4.53;3.63;;;;;;;;;;5046242;28;20212;-75
2023/04/05 14:49:58;;;;;;;4.30;3.30;;;;;;;;;;5046220;28;20185;-75
2023/04/05 14:52:24;;;;;;;3.70;3.40;;;;;;;;;;5046235;28;20338;-76
2023/04/05 14:54:50;;;;;;;4.17;3.77;;;;;;;;;;5046575;28;20717;-75